Time;durP1;ratioP1;P1;durP2;ratioP2;P2;SDS_P1;SDS_P2;PMS_P1;PMS_P2;Temp;Humidity;BMP_temperature;BMP_pressure;BME280_temperature;BME280_humidity;BME280_pressure;Samples;Min_cycle;Max_cycle;Signal;HPM_P1;HPM_P2
2020/12/26 00:01:17;;;;;;;5.00;2.97;;;20.20;41.80;;;;;;5049881;28;20505;-76
2020/12/26 00:03:43;;;;;;;;;;;20.10;41.70;;;;;;5029277;28;20043;-76
2020/12/26 00:06:12;;;;;;;4.32;2.30;;;20.10;41.80;;;;;;5052169;28;19912;-76
2020/12/26 00:08:37;;;;;;;4.63;2.60;;;20.10;41.70;;;;;;5041746;28;20390;-70
2020/12/26 00:11:04;;;;;;;5.43;2.47;;;20.10;41.80;;;;;;5055348;28;20119;-74
2020/12/26 00:13:29;;;;;;;4.50;2.75;;;20.10;41.80;;;;;;5031815;28;20076;-70
2020/12/26 00:15:58;;;;;;;4.05;2.30;;;20.00;41.80;;;;;;5040739;28;20056;-71
2020/12/26 00:18:23;;;;;;;2.85;1.77;;;20.10;41.90;;;;;;5039880;28;20020;-70
2020/12/26 00:20:49;;;;;;;8.82;2.47;;;20.00;41.90;;;;;;5059194;28;20404;-71
2020/12/26 00:23:15;;;;;;;3.00;1.38;;;20.00;41.90;;;;;;5020568;28;20094;-71
2020/12/26 00:25:41;;;;;;;5.75;2.45;;;20.00;41.90;;;;;;5035654;28;20497;-71
2020/12/26 00:28:06;;;;;;;2.30;1.45;;;20.00;41.90;;;;;;5038361;28;20025;-71
2020/12/26 00:30:32;;;;;;;3.65;2.10;;;20.00;41.90;;;;;;5062728;28;20025;-70
2020/12/26 00:32:57;;;;;;;4.38;2.63;;;20.00;42.10;;;;;;5066358;28;20071;-70
2020/12/26 00:35:23;;;;;;;6.15;2.45;;;20.00;42.00;;;;;;5042859;28;20401;-70
2020/12/26 00:37:48;;;;;;;4.78;2.20;;;19.90;42.00;;;;;;5059740;28;20453;-70
2020/12/26 00:40:14;;;;;;;4.72;2.35;;;19.90;42.00;;;;;;5054941;28;20041;-70
2020/12/26 00:42:40;;;;;;;4.10;1.95;;;19.90;42.00;;;;;;5066056;28;20040;-70
2020/12/26 00:45:05;;;;;;;5.07;2.47;;;19.90;42.00;;;;;;5040325;28;20040;-70
2020/12/26 00:47:31;;;;;;;3.92;2.13;;;19.90;42.00;;;;;;5060367;28;20063;-70
2020/12/26 00:49:56;;;;;;;3.92;2.67;;;19.90;42.00;;;;;;5043514;28;20060;-70
2020/12/26 00:52:25;;;;;;;3.75;2.40;;;19.90;42.00;;;;;;5051920;28;20029;-70
2020/12/26 00:54:50;;;;;;;2.67;1.98;;;19.90;42.00;;;;;;5053743;28;20484;-70
2020/12/26 00:57:16;;;;;;;3.65;1.95;;;19.90;41.90;;;;;;5045903;28;20078;-70
2020/12/26 00:59:41;;;;;;;4.78;2.30;;;19.90;42.00;;;;;;5052788;28;20404;-70
2020/12/26 01:02:07;;;;;;;5.70;2.08;;;19.90;42.00;;;;;;5059475;28;20020;-70
2020/12/26 01:04:32;;;;;;;6.00;2.42;;;19.90;42.00;;;;;;5051685;28;20099;-71
2020/12/26 01:06:58;;;;;;;4.47;2.38;;;19.90;41.90;;;;;;5047855;28;20032;-71
2020/12/26 01:09:24;;;;;;;3.55;1.98;;;19.90;41.90;;;;;;5040460;28;20041;-71
2020/12/26 01:11:52;;;;;;;2.10;1.38;;;19.90;41.90;;;;;;5046572;28;20658;-71
2020/12/26 01:14:18;;;;;;;5.97;2.13;;;19.90;41.90;;;;;;5069849;28;20071;-71
2020/12/26 01:16:48;;;;;;;3.50;2.55;;;19.90;41.90;;;;;;5025630;28;20575;-71
2020/12/26 01:19:14;;;;;;;5.13;1.90;;;19.90;42.00;;;;;;5064990;28;20029;-71
2020/12/26 01:21:39;;;;;;;5.25;2.33;;;19.80;41.80;;;;;;5036775;28;20099;-71
2020/12/26 01:24:05;;;;;;;5.85;2.80;;;19.80;41.80;;;;;;5043698;28;20051;-71
2020/12/26 01:26:30;;;;;;;4.63;2.10;;;19.80;41.90;;;;;;5016728;28;20021;-71
2020/12/26 01:28:56;;;;;;;7.03;2.25;;;19.80;42.00;;;;;;5036133;28;20474;-71
2020/12/26 01:31:21;;;;;;;4.80;2.13;;;19.80;42.00;;;;;;5053507;28;20021;-71
2020/12/26 01:33:47;;;;;;;2.42;1.75;;;19.80;42.00;;;;;;5028646;28;20079;-70
2020/12/26 01:36:13;;;;;;;3.35;2.20;;;19.80;42.00;;;;;;5052445;28;20075;-70
2020/12/26 01:38:39;;;;;;;2.58;0.98;;;19.80;42.00;;;;;;5035415;28;20029;-71
2020/12/26 01:41:04;;;;;;;4.25;2.15;;;19.70;42.00;;;;;;5054143;28;20539;-71
2020/12/26 01:43:30;;;;;;;4.95;2.60;;;19.70;42.00;;;;;;5024822;28;20112;-71
2020/12/26 01:45:55;;;;;;;4.70;2.65;;;19.70;42.00;;;;;;5038437;28;20079;-71
2020/12/26 01:48:21;;;;;;;3.70;2.38;;;19.70;42.00;;;;;;5015325;28;20057;-71
2020/12/26 01:50:53;;;;;;;5.97;2.35;;;19.70;42.10;;;;;;5018382;28;20048;-70
2020/12/26 01:53:18;;;;;;;3.42;1.67;;;19.70;42.10;;;;;;5026244;28;20420;-70
2020/12/26 01:55:44;;;;;;;3.15;2.10;;;19.70;42.10;;;;;;5059213;28;20028;-70
2020/12/26 01:58:12;;;;;;;4.00;1.77;;;19.70;42.10;;;;;;5035110;28;20029;-71
2020/12/26 02:00:38;;;;;;;5.45;2.10;;;19.70;42.10;;;;;;5017970;28;20073;-71
2020/12/26 02:03:04;;;;;;;2.95;1.80;;;19.60;42.10;;;;;;5038835;28;20040;-71
2020/12/26 02:05:30;;;;;;;5.75;2.55;;;19.60;42.20;;;;;;5029519;28;20021;-71
2020/12/26 02:07:55;;;;;;;2.05;1.83;;;19.60;42.20;;;;;;5034632;28;20037;-71
2020/12/26 02:10:21;;;;;;;5.63;2.25;;;19.60;42.20;;;;;;5030097;28;20021;-71
2020/12/26 02:12:47;;;;;;;2.88;2.13;;;19.60;42.30;;;;;;5003937;28;20128;-70
2020/12/26 02:15:13;;;;;;;5.55;2.33;;;19.60;42.30;;;;;;5043008;28;20032;-70
2020/12/26 02:17:39;;;;;;;3.60;2.33;;;19.60;42.20;;;;;;5034442;28;20053;-71
2020/12/26 02:20:05;;;;;;;2.75;1.88;;;19.60;42.20;;;;;;5037007;28;20079;-71
2020/12/26 02:22:30;;;;;;;2.63;1.90;;;19.60;42.20;;;;;;5034971;28;20068;-71
2020/12/26 02:24:56;;;;;;;5.05;2.13;;;19.60;42.20;;;;;;5069313;28;20508;-71
2020/12/26 02:27:21;;;;;;;3.90;2.33;;;19.60;42.20;;;;;;5032885;28;20505;-71
2020/12/26 02:29:47;;;;;;;4.93;2.05;;;19.60;42.20;;;;;;5051058;28;20507;-71
2020/12/26 02:32:12;;;;;;;3.03;2.40;;;19.60;42.20;;;;;;5053746;28;20500;-71
2020/12/26 02:34:38;;;;;;;3.17;2.00;;;19.60;42.20;;;;;;5018041;28;20124;-71
2020/12/26 02:37:03;;;;;;;6.13;2.33;;;19.60;42.20;;;;;;5063963;28;20033;-71
2020/12/26 02:39:41;;;;;;;4.82;2.10;;;19.60;42.20;;;;;;5035314;28;20400;-71
2020/12/26 02:42:07;;;;;;;3.63;1.75;;;19.60;42.20;;;;;;5043480;28;20456;-71
2020/12/26 02:44:32;;;;;;;2.90;2.20;;;19.60;42.20;;;;;;5069001;28;20055;-70
2020/12/26 02:46:58;;;;;;;2.58;1.75;;;19.60;42.20;;;;;;5069387;28;20102;-70
2020/12/26 02:49:24;;;;;;;2.65;2.03;;;19.50;42.30;;;;;;5052564;28;20035;-71
2020/12/26 02:51:49;;;;;;;3.80;1.83;;;19.50;42.30;;;;;;5048595;28;20057;-70
2020/12/26 02:54:15;;;;;;;2.38;1.77;;;19.50;42.30;;;;;;5052150;28;20036;-71
2020/12/26 02:56:41;;;;;;;1.95;1.75;;;19.50;42.30;;;;;;5017622;28;20041;-71
2020/12/26 02:59:09;;;;;;;2.78;2.03;;;19.50;42.30;;;;;;5005357;28;20111;-70
2020/12/26 03:01:39;;;;;;;4.78;2.00;;;19.50;42.90;;;;;;5021118;28;20107;-75
2020/12/26 03:04:05;;;;;;;3.75;2.00;;;19.60;42.30;;;;;;5034157;28;20032;-76
2020/12/26 03:06:30;;;;;;;4.00;2.00;;;19.50;42.30;;;;;;5052602;28;20029;-76
2020/12/26 03:08:56;;;;;;;2.35;1.98;;;19.50;42.30;;;;;;5050934;28;20140;-76
2020/12/26 03:11:22;;;;;;;2.47;1.52;;;19.50;42.30;;;;;;5060995;28;20040;-76
2020/12/26 03:13:48;;;;;;;5.30;2.17;;;19.50;42.30;;;;;;5033441;28;20116;-76
2020/12/26 03:16:14;;;;;;;2.28;1.80;;;19.50;42.30;;;;;;5052364;28;20113;-75
2020/12/26 03:18:39;;;;;;;5.90;1.67;;;19.50;42.30;;;;;;5031132;28;20033;-75
2020/12/26 03:21:05;;;;;;;2.67;1.70;;;19.50;42.30;;;;;;5061497;28;20033;-75
2020/12/26 03:23:31;;;;;;;6.55;2.33;;;19.50;42.30;;;;;;5044073;28;20021;-76
2020/12/26 03:25:56;;;;;;;3.38;2.10;;;19.50;42.30;;;;;;5037745;28;20045;-76
2020/12/26 03:28:22;;;;;;;2.72;1.90;;;19.40;42.30;;;;;;5017851;28;20373;-75
2020/12/26 03:30:47;;;;;;;3.05;1.80;;;19.50;42.40;;;;;;5059052;28;20061;-75
2020/12/26 03:33:13;;;;;;;6.13;2.00;;;19.40;42.40;;;;;;5021257;28;20049;-76
2020/12/26 03:35:38;;;;;;;2.72;1.88;;;19.50;43.00;;;;;;5035963;28;20028;-76
2020/12/26 03:38:04;;;;;;;3.33;2.22;;;19.40;42.40;;;;;;5035509;28;20519;-76
2020/12/26 03:40:29;;;;;;;2.97;1.75;;;19.40;42.40;;;;;;5055812;28;20501;-76
2020/12/26 03:42:55;;;;;;;3.80;1.80;;;19.40;42.40;;;;;;5038433;28;20397;-76
2020/12/26 03:45:21;;;;;;;5.28;2.22;;;19.40;42.40;;;;;;5048452;28;20025;-76
2020/12/26 03:47:47;;;;;;;0.77;0.55;;;19.30;42.30;;;;;;5040431;28;20025;-71
2020/12/26 03:50:12;;;;;;;2.20;1.98;;;19.30;42.40;;;;;;5037366;28;20408;-72
2020/12/26 03:52:38;;;;;;;4.63;2.13;;;19.30;42.30;;;;;;5053491;28;20041;-71
2020/12/26 03:55:03;;;;;;;4.40;1.35;;;19.40;42.40;;;;;;5033040;28;20030;-71
2020/12/26 03:57:29;;;;;;;4.40;2.10;;;19.30;42.40;;;;;;5054399;28;20036;-71
2020/12/26 03:59:54;;;;;;;3.90;1.95;;;19.30;42.30;;;;;;5044671;28;20614;-71
2020/12/26 04:02:20;;;;;;;3.35;1.50;;;19.30;42.40;;;;;;5058595;28;20028;-72
2020/12/26 04:04:45;;;;;;;4.75;1.90;;;19.30;42.40;;;;;;5054411;28;20155;-71
2020/12/26 04:07:11;;;;;;;2.60;1.77;;;19.30;42.50;;;;;;5055654;28;20075;-72
2020/12/26 04:09:36;;;;;;;3.53;1.90;;;19.30;42.40;;;;;;5050076;28;20036;-72
2020/12/26 04:12:02;;;;;;;6.00;1.63;;;19.30;42.40;;;;;;5040061;28;20029;-71
2020/12/26 04:14:28;;;;;;;4.35;1.85;;;19.30;42.40;;;;;;5046611;28;20439;-71
2020/12/26 04:16:59;;;;;;;4.60;1.90;;;19.30;42.30;;;;;;5043986;28;20108;-71
2020/12/26 04:19:25;;;;;;;3.78;1.83;;;19.30;42.30;;;;;;5052820;28;20040;-71
2020/12/26 04:21:51;;;;;;;2.33;1.80;;;19.30;42.30;;;;;;5039082;28;20025;-71
2020/12/26 04:24:17;;;;;;;4.00;1.83;;;19.30;42.90;;;;;;5017683;28;20022;-71
2020/12/26 04:26:42;;;;;;;4.10;2.50;;;19.20;42.30;;;;;;5032753;28;20032;-71
2020/12/26 04:29:08;;;;;;;4.55;2.17;;;19.30;42.30;;;;;;5040986;28;20075;-71
2020/12/26 04:31:34;;;;;;;2.72;1.75;;;19.30;42.30;;;;;;5062386;28;20523;-70
2020/12/26 04:33:59;;;;;;;0.43;0.03;;;19.30;42.30;;;;;;5031187;28;20024;-71
2020/12/26 04:37:18;;;;;;;5.65;2.38;;;19.20;42.20;;;;;;5054037;28;20393;-70
2020/12/26 04:39:47;;;;;;;1.77;1.35;;;19.20;42.30;;;;;;5053941;28;20029;-70
2020/12/26 04:42:15;;;;;;;3.28;1.38;;;19.20;42.30;;;;;;5036888;28;20397;-70
2020/12/26 04:44:41;;;;;;;7.63;2.78;;;19.20;42.40;;;;;;5036573;28;20044;-71
2020/12/26 04:47:09;;;;;;;1.10;0.57;;;19.20;42.40;;;;;;5018662;28;20037;-70
2020/12/26 04:49:36;;;;;;;5.15;1.73;;;19.20;42.40;;;;;;5017013;28;20067;-70
2020/12/26 04:52:02;;;;;;;2.47;1.42;;;19.20;42.30;;;;;;5020116;28;20021;-70
2020/12/26 04:54:40;;;;;;;2.92;1.98;;;19.20;42.40;;;;;;5040729;28;20022;-70
2020/12/26 04:57:06;;;;;;;8.13;2.65;;;19.10;42.30;;;;;;5010028;28;20526;-70
2020/12/26 04:59:31;;;;;;;5.75;2.65;;;19.10;42.40;;;;;;5043831;28;20112;-70
2020/12/26 05:01:57;;;;;;;1.67;0.30;;;19.10;42.40;;;;;;5051494;28;20037;-71
2020/12/26 05:04:22;;;;;;;0.70;0.50;;;19.10;42.40;;;;;;5026316;28;20558;-70
2020/12/26 05:06:49;;;;;;;0.60;0.40;;;19.10;42.50;;;;;;5055109;28;20136;-70
2020/12/26 05:09:15;;;;;;;0.88;0.50;;;19.10;42.50;;;;;;5032294;28;20037;-70
2020/12/26 05:11:49;;;;;;;0.57;0.52;;;19.10;42.50;;;;;;5034438;28;20083;-71
2020/12/26 05:14:16;;;;;;;0.70;0.40;;;19.10;43.20;;;;;;5043895;28;20067;-71
2020/12/26 05:16:41;;;;;;;0.43;0.40;;;19.10;42.60;;;;;;5019795;28;20050;-71
2020/12/26 05:19:08;;;;;;;0.73;0.73;;;19.10;42.60;;;;;;5020654;28;20032;-71
2020/12/26 05:21:33;;;;;;;1.58;0.50;;;19.10;42.70;;;;;;5017308;28;20064;-71
2020/12/26 05:24:06;;;;;;;2.60;0.73;;;19.10;43.30;;;;;;5035347;28;20404;-71
2020/12/26 05:26:39;;;;;;;0.90;0.63;;;19.00;42.50;;;;;;5033622;28;20025;-71
2020/12/26 05:29:06;;;;;;;0.85;0.40;;;19.00;42.70;;;;;;5031377;28;20064;-71
2020/12/26 05:32:02;;;;;;;0.47;0.45;;;19.00;42.70;;;;;;5035658;28;20021;-71
2020/12/26 05:34:34;;;;;;;2.65;0.65;;;19.00;42.80;;;;;;4921000;29;20043;-71
2020/12/26 05:37:03;;;;;;;1.17;0.60;;;19.00;42.80;;;;;;4920101;29;20126;-71
2020/12/26 05:39:34;;;;;;;1.38;0.57;;;19.00;42.80;;;;;;4932720;29;20039;-71
2020/12/26 05:42:00;;;;;;;0.77;0.50;;;19.00;42.80;;;;;;4954218;28;20047;-71
2020/12/26 05:44:29;;;;;;;2.10;0.90;;;19.00;42.80;;;;;;4933032;28;20040;-71
2020/12/26 05:46:57;;;;;;;4.40;0.68;;;19.00;42.70;;;;;;4936741;29;20031;-71
2020/12/26 05:49:32;;;;;;;1.30;0.70;;;19.00;42.80;;;;;;4951998;29;20175;-71
2020/12/26 05:52:02;;;;;;;;;;;18.90;42.70;;;;;;4936878;29;20039;-70
2020/12/26 05:54:28;;;;;;;0.75;0.68;;;18.90;42.60;;;;;;4948337;29;19910;-71
2020/12/26 05:57:13;;;;;;;3.58;0.50;;;18.90;42.70;;;;;;4936617;29;20102;-70
2020/12/26 05:59:39;;;;;;;1.80;0.50;;;18.90;42.80;;;;;;4936128;29;20036;-70
2020/12/26 06:02:18;;;;;;;2.92;0.82;;;18.90;42.60;;;;;;4939771;29;20067;-70
2020/12/26 06:04:47;;;;;;;4.72;3.30;;;18.90;42.70;;;;;;4936410;29;20031;-70
2020/12/26 06:07:12;;;;;;;0.68;0.63;;;18.90;42.70;;;;;;4933384;29;20042;-74
2020/12/26 06:10:00;;;;;;;4.32;0.82;;;18.80;42.50;;;;;;4954128;28;20035;-74
2020/12/26 06:12:27;;;;;;;1.45;0.75;;;18.90;42.60;;;;;;5034998;28;20380;-74
2020/12/26 06:14:53;;;;;;;1.05;0.60;;;18.80;42.60;;;;;;5052338;28;20036;-71
2020/12/26 06:17:20;;;;;;;5.45;3.60;;;18.80;42.70;;;;;;5017684;28;20037;-70
2020/12/26 06:20:42;;;;;;;1.13;0.63;;;18.90;42.80;;;;;;5018468;28;20028;-70
2020/12/26 06:23:07;;;;;;;2.17;0.70;;;18.80;42.90;;;;;;5033495;28;20024;-70
2020/12/26 06:25:33;;;;;;;3.60;0.47;;;18.80;42.90;;;;;;5000871;28;20036;-71
2020/12/26 06:28:02;;;;;;;0.93;0.82;;;18.90;43.00;;;;;;5018161;28;20029;-74
2020/12/26 06:30:28;;;;;;;0.40;0.40;;;18.80;42.90;;;;;;5033394;28;20029;-74
2020/12/26 06:32:54;;;;;;;0.85;0.40;;;18.80;42.90;;;;;;5023683;28;20531;-74
2020/12/26 06:35:20;;;;;;;3.90;2.50;;;18.80;42.90;;;;;;5033569;28;20116;-73
2020/12/26 06:38:09;;;;;;;0.80;0.50;;;18.90;43.10;;;;;;5019153;28;20115;-73
2020/12/26 06:40:34;;;;;;;0.50;0.50;;;18.80;42.90;;;;;;5048709;28;20041;-70
2020/12/26 06:43:00;;;;;;;1.35;0.52;;;18.90;42.90;;;;;;5034269;28;20033;-70
2020/12/26 06:45:43;;;;;;;1.05;0.40;;;19.00;42.80;;;;;;5034638;28;20033;-70
2020/12/26 06:48:09;;;;;;;2.88;2.00;;;19.10;42.70;;;;;;5045698;28;20033;-70
2020/12/26 06:50:34;;;;;;;0.55;0.40;;;19.10;42.50;;;;;;5017980;28;20374;-74
2020/12/26 06:53:01;;;;;;;0.40;0.30;;;19.20;42.20;;;;;;5052144;28;20374;-74
2020/12/26 06:55:41;;;;;;;2.03;0.77;;;19.20;42.20;;;;;;5031522;28;20060;-70
2020/12/26 06:58:10;;;;;;;1.08;0.50;;;19.30;42.20;;;;;;5033930;28;20040;-70
2020/12/26 07:00:35;;;;;;;3.75;2.40;;;19.40;42.00;;;;;;5034004;28;20702;-70
2020/12/26 07:03:24;;;;;;;4.32;0.50;;;19.50;41.90;;;;;;5035315;28;20152;-70
2020/12/26 07:05:50;;;;;;;0.60;0.47;;;19.50;41.60;;;;;;5031955;28;20489;-70
2020/12/26 07:08:30;;;;;;;1.27;0.47;;;19.50;41.50;;;;;;5018553;28;20038;-70
2020/12/26 07:10:57;;;;;;;0.40;0.40;;;19.60;41.50;;;;;;5017593;28;20082;-71
2020/12/26 07:13:45;;;;;;;3.88;2.40;;;19.60;41.50;;;;;;5018937;28;20037;-70
2020/12/26 07:16:45;;;;;;;0.98;0.52;;;19.70;41.40;;;;;;5061231;28;20021;-70
2020/12/26 07:19:21;;;;;;;0.57;0.50;;;19.70;41.40;;;;;;5056349;28;20400;-70
2020/12/26 07:22:00;;;;;;;0.95;0.70;;;19.70;41.30;;;;;;5057323;28;20024;-70
2020/12/26 07:24:30;;;;;;;4.28;2.10;;;19.80;41.30;;;;;;5043844;28;20031;-71
2020/12/26 07:27:20;;;;;;;1.75;0.52;;;19.80;41.20;;;;;;5057067;28;20037;-71
2020/12/26 07:29:56;;;;;;;1.08;0.68;;;19.80;41.20;;;;;;5054175;28;20035;-70
2020/12/26 07:32:51;;;;;;;0.40;0.30;;;19.80;41.10;;;;;;5036037;28;20036;-70
2020/12/26 07:35:19;;;;;;;0.28;0.28;;;19.80;41.10;;;;;;5045718;28;20028;-70
2020/12/26 07:37:46;;;;;;;3.58;2.00;;;19.80;41.20;;;;;;5064603;28;20385;-70
2020/12/26 07:40:16;;;;;;;0.40;0.40;;;19.90;41.30;;;;;;5034213;28;20067;-71
2020/12/26 07:42:48;;;;;;;1.27;0.68;;;19.90;41.20;;;;;;5048511;28;20017;-71
2020/12/26 07:45:15;;;;;;;0.95;0.50;;;19.90;41.20;;;;;;5019362;28;20030;-71
2020/12/26 07:47:41;;;;;;;3.10;2.08;;;19.90;41.20;;;;;;5050942;28;20016;-73
2020/12/26 07:50:08;;;;;;;1.35;0.52;;;19.90;41.20;;;;;;5054048;28;20388;-73
2020/12/26 07:55:55;;;;;;;1.13;0.40;;;19.90;41.20;;;;;;5040536;28;20032;-72
2020/12/26 07:58:21;;;;;;;2.08;1.27;;;19.90;41.20;;;;;;5051839;28;20033;-71
2020/12/26 08:00:47;;;;;;;0.55;0.40;;;19.90;41.20;;;;;;5036983;28;20035;-71
2020/12/26 08:03:13;;;;;;;0.43;0.30;;;19.90;41.20;;;;;;5055550;28;20569;-71
2020/12/26 08:05:39;;;;;;;0.50;0.30;;;20.00;41.20;;;;;;5028613;28;20044;-70
2020/12/26 08:08:21;;;;;;;0.47;0.20;;;19.90;41.20;;;;;;5045150;28;20029;-69
2020/12/26 08:10:47;;;;;;;3.78;2.40;;;19.90;41.20;;;;;;5024845;28;20449;-69
2020/12/26 08:13:16;;;;;;;0.77;0.30;;;19.90;41.20;;;;;;5036387;28;20073;-69
2020/12/26 08:15:41;;;;;;;1.85;0.50;;;19.90;41.30;;;;;;5037715;28;20016;-69
2020/12/26 08:18:07;;;;;;;1.27;0.40;;;19.90;41.30;;;;;;5036993;28;20039;-69
2020/12/26 08:20:33;;;;;;;1.98;0.80;;;20.00;41.30;;;;;;5037124;28;20354;-69
2020/12/26 08:23:17;;;;;;;0.20;0.20;;;20.00;41.30;;;;;;5055071;28;20017;-69
2020/12/26 08:25:42;;;;;;;2.13;0.40;;;19.90;41.80;;;;;;5062445;28;20079;-69
2020/12/26 08:28:08;;;;;;;1.55;0.40;;;19.90;41.20;;;;;;5061342;28;20040;-69
2020/12/26 08:30:35;;;;;;;1.10;0.35;;;19.90;41.20;;;;;;5015973;28;20037;-69
2020/12/26 08:33:19;;;;;;;1.15;0.43;;;19.90;41.20;;;;;;5012955;28;20154;-69
2020/12/26 08:35:55;;;;;;;1.55;0.60;;;20.00;41.20;;;;;;5047458;28;20500;-69
2020/12/26 08:38:27;;;;;;;0.40;0.30;;;19.90;41.20;;;;;;5027108;28;20017;-69
2020/12/26 08:40:57;;;;;;;0.95;0.60;;;19.90;41.20;;;;;;5029125;28;20048;-69
2020/12/26 08:43:39;;;;;;;0.30;0.30;;;19.90;41.20;;;;;;5023835;28;20045;-69
2020/12/26 08:46:18;;;;;;;1.20;0.50;;;20.00;41.20;;;;;;5033298;28;20027;-69
2020/12/26 08:48:44;;;;;;;0.50;0.45;;;19.90;41.10;;;;;;5026062;28;20091;-69
2020/12/26 08:51:24;;;;;;;1.05;0.57;;;20.00;41.20;;;;;;5036695;28;20020;-73
2020/12/26 08:53:50;;;;;;;0.82;0.40;;;20.00;41.20;;;;;;5054646;28;20029;-69
2020/12/26 08:56:16;;;;;;;0.77;0.30;;;19.90;41.00;;;;;;5054896;28;20025;-69
2020/12/26 08:58:49;;;;;;;0.22;0.22;;;20.00;41.10;;;;;;5024482;28;20099;-69
2020/12/26 09:01:14;;;;;;;0.52;0.28;;;20.00;41.00;;;;;;5020262;28;20437;-69
2020/12/26 09:03:46;;;;;;;0.85;0.40;;;20.10;41.00;;;;;;5035046;28;20071;-69
2020/12/26 09:06:12;;;;;;;0.77;0.68;;;20.10;40.90;;;;;;5040371;28;20025;-69
2020/12/26 09:08:37;;;;;;;0.55;0.35;;;20.10;40.80;;;;;;5037634;28;20033;-69
2020/12/26 09:11:04;;;;;;;0.73;0.40;;;20.10;40.80;;;;;;5035270;28;20041;-69
2020/12/26 09:13:34;;;;;;;0.40;0.40;;;20.10;40.70;;;;;;5053243;28;20025;-69
2020/12/26 09:16:12;;;;;;;0.28;0.28;;;20.20;40.80;;;;;;5039340;28;20131;-69
2020/12/26 09:18:42;;;;;;;0.65;0.30;;;20.20;40.80;;;;;;5037832;28;20047;-69
2020/12/26 09:21:22;;;;;;;0.60;0.30;;;20.20;40.80;;;;;;5037370;28;20104;-69
2020/12/26 09:27:22;;;;;;;0.30;0.30;;;20.20;40.80;;;;;;5043482;28;20546;-69
2020/12/26 09:29:51;;;;;;;0.25;0.25;;;20.20;40.80;;;;;;5046260;28;20082;-69
2020/12/26 09:32:18;;;;;;;0.65;0.40;;;20.20;40.80;;;;;;5016341;28;20033;-69
2020/12/26 09:34:44;;;;;;;0.52;0.30;;;20.20;40.80;;;;;;5053481;28;20037;-70
2020/12/26 09:37:10;;;;;;;0.63;0.47;;;20.30;40.90;;;;;;5054557;28;20025;-73
2020/12/26 09:39:36;;;;;;;0.50;0.50;;;20.30;40.70;;;;;;5003945;28;20055;-72
2020/12/26 09:42:02;;;;;;;0.40;0.40;;;20.20;40.60;;;;;;5053135;28;20037;-73
2020/12/26 09:44:28;;;;;;;0.57;0.45;;;20.20;40.40;;;;;;5048337;28;20412;-73
2020/12/26 09:47:04;;;;;;;2.28;0.55;;;20.20;40.30;;;;;;5018786;28;20076;-73
2020/12/26 09:49:29;;;;;;;0.30;0.30;;;20.20;40.20;;;;;;5026314;28;20048;-72
2020/12/26 09:51:55;;;;;;;1.52;0.30;;;20.30;40.90;;;;;;5032772;28;20106;-74
2020/12/26 09:54:21;;;;;;;0.32;0.30;;;20.20;40.20;;;;;;5037293;28;20036;-73
2020/12/26 09:56:47;;;;;;;1.02;0.40;;;20.30;40.30;;;;;;5016273;28;20028;-73
2020/12/26 09:59:13;;;;;;;0.30;0.30;;;20.30;40.10;;;;;;4998257;28;20029;-73
2020/12/26 10:01:39;;;;;;;1.05;0.57;;;20.30;40.10;;;;;;5055504;28;20506;-72
2020/12/26 10:04:04;;;;;;;0.40;0.30;;;20.30;40.10;;;;;;5045838;28;20096;-73
2020/12/26 10:06:48;;;;;;;0.43;0.30;;;20.30;40.00;;;;;;5034128;28;20496;-72
2020/12/26 10:09:14;;;;;;;1.63;0.35;;;20.30;39.90;;;;;;5060619;28;20043;-72
2020/12/26 10:11:39;;;;;;;0.40;0.30;;;20.40;39.90;;;;;;5052104;28;20033;-72
2020/12/26 10:14:05;;;;;;;0.75;0.30;;;20.30;39.80;;;;;;5048494;28;20032;-72
2020/12/26 10:16:30;;;;;;;0.57;0.40;;;20.30;39.70;;;;;;5046011;28;20021;-72
2020/12/26 10:18:56;;;;;;;0.98;0.40;;;20.30;39.60;;;;;;5055297;28;20037;-72
2020/12/26 10:21:21;;;;;;;0.40;0.40;;;20.40;39.50;;;;;;5038030;28;20048;-72
2020/12/26 10:23:47;;;;;;;1.00;0.60;;;20.30;39.30;;;;;;5069307;28;20025;-72
2020/12/26 10:26:12;;;;;;;0.93;0.60;;;20.30;39.20;;;;;;5064648;28;20026;-72
2020/12/26 10:28:38;;;;;;;0.82;0.57;;;20.40;39.10;;;;;;5014871;28;20029;-72
2020/12/26 10:31:04;;;;;;;1.20;0.77;;;20.40;39.20;;;;;;5035274;28;20480;-72
2020/12/26 10:33:29;;;;;;;0.63;0.52;;;20.40;39.20;;;;;;5052106;28;20036;-72
2020/12/26 10:35:55;;;;;;;2.35;0.50;;;20.40;39.20;;;;;;5033786;28;20100;-73
2020/12/26 10:38:20;;;;;;;2.17;0.40;;;20.40;39.30;;;;;;5017271;28;20044;-73
2020/12/26 10:40:47;;;;;;;0.73;0.30;;;20.40;39.30;;;;;;5028612;28;20535;-73
2020/12/26 10:43:13;;;;;;;0.60;0.30;;;20.40;39.40;;;;;;5039181;28;20112;-73
2020/12/26 10:45:39;;;;;;;0.15;0.15;;;20.30;39.40;;;;;;5034800;28;20036;-71
2020/12/26 10:48:04;;;;;;;1.65;0.30;;;20.30;39.40;;;;;;5049825;28;20033;-71
2020/12/26 10:50:30;;;;;;;0.82;0.30;;;20.40;39.60;;;;;;5032748;28;20033;-72
2020/12/26 10:52:55;;;;;;;0.77;0.30;;;20.40;39.60;;;;;;5038308;28;20056;-71
2020/12/26 10:55:21;;;;;;;4.28;0.70;;;20.40;39.60;;;;;;5053604;28;20404;-70
2020/12/26 10:57:47;;;;;;;0.88;0.50;;;20.40;39.50;;;;;;5049100;28;20408;-72
2020/12/26 11:00:27;;;;;;;2.28;0.65;;;20.40;39.60;;;;;;5058288;28;20056;-72
2020/12/26 11:02:53;;;;;;;0.45;0.40;;;20.30;39.30;;;;;;5044931;28;20025;-72
2020/12/26 11:05:22;;;;;;;0.50;0.45;;;20.30;39.40;;;;;;5036837;28;20477;-73
2020/12/26 11:07:47;;;;;;;0.32;0.30;;;20.30;39.50;;;;;;5035668;28;20420;-72
2020/12/26 11:10:13;;;;;;;0.73;0.40;;;20.30;39.50;;;;;;5042864;28;20032;-72
2020/12/26 11:12:38;;;;;;;0.30;0.30;;;20.40;39.60;;;;;;5043099;28;20392;-73
2020/12/26 11:15:04;;;;;;;1.05;0.40;;;20.30;39.60;;;;;;5050179;28;20103;-72
2020/12/26 11:17:30;;;;;;;0.63;0.32;;;20.30;39.60;;;;;;5033001;28;20086;-72
2020/12/26 11:19:55;;;;;;;2.70;0.57;;;20.30;39.40;;;;;;5039267;28;20044;-72
2020/12/26 11:22:21;;;;;;;0.43;0.43;;;20.30;39.40;;;;;;5056203;28;20499;-72
2020/12/26 11:24:46;;;;;;;0.80;0.60;;;20.30;39.30;;;;;;5033802;28;20025;-72
2020/12/26 11:27:12;;;;;;;1.33;0.60;;;20.30;39.40;;;;;;5069202;28;20028;-71
2020/12/26 11:29:37;;;;;;;1.52;0.60;;;20.30;39.30;;;;;;5049718;28;20028;-72
2020/12/26 11:32:03;;;;;;;0.75;0.40;;;20.30;39.40;;;;;;5036908;28;20095;-73
2020/12/26 11:34:29;;;;;;;0.75;0.40;;;20.30;39.50;;;;;;5030693;28;20068;-71
2020/12/26 11:36:54;;;;;;;0.95;0.63;;;20.30;39.60;;;;;;5062657;28;20039;-71
2020/12/26 11:39:20;;;;;;;0.60;0.60;;;20.30;39.70;;;;;;5058516;28;20623;-71
2020/12/26 11:41:45;;;;;;;0.82;0.50;;;20.30;39.50;;;;;;5050339;28;20048;-73
2020/12/26 11:44:11;;;;;;;1.95;0.50;;;20.30;39.40;;;;;;5036508;28;20111;-72
2020/12/26 11:46:37;;;;;;;0.57;0.47;;;20.40;39.50;;;;;;5055010;28;20025;-74
2020/12/26 11:49:03;;;;;;;1.20;0.82;;;20.40;39.50;;;;;;5055453;28;20108;-71
2020/12/26 11:51:29;;;;;;;2.55;0.43;;;20.40;39.30;;;;;;5057432;28;20485;-71
2020/12/26 11:53:55;;;;;;;2.25;0.80;;;20.40;39.20;;;;;;5052650;28;20106;-72
2020/12/26 11:56:20;;;;;;;0.40;0.30;;;20.50;39.40;;;;;;5055736;28;20028;-71
2020/12/26 11:58:46;;;;;;;0.68;0.57;;;20.40;39.20;;;;;;5054756;28;20163;-71
2020/12/26 12:01:11;;;;;;;0.45;0.45;;;20.50;39.30;;;;;;5054907;28;20025;-72
2020/12/26 12:03:37;;;;;;;0.55;0.40;;;20.50;39.20;;;;;;5040135;28;20033;-71
2020/12/26 12:06:03;;;;;;;0.43;0.43;;;20.50;39.30;;;;;;5055018;28;20025;-71
2020/12/26 12:08:29;;;;;;;0.70;0.50;;;20.40;39.10;;;;;;5047792;28;20484;-72
2020/12/26 12:10:54;;;;;;;2.80;0.40;;;20.40;39.20;;;;;;5041917;28;20083;-71
2020/12/26 12:13:20;;;;;;;0.65;0.20;;;20.30;39.20;;;;;;5047620;28;20034;-71
2020/12/26 12:15:46;;;;;;;0.80;0.60;;;20.30;39.20;;;;;;5034560;28;20408;-71
2020/12/26 12:18:11;;;;;;;0.73;0.40;;;20.30;39.20;;;;;;5054465;28;20492;-71
2020/12/26 12:20:40;;;;;;;0.93;0.50;;;20.30;39.10;;;;;;5053673;28;20107;-71
2020/12/26 12:23:05;;;;;;;0.60;0.50;;;20.20;39.10;;;;;;5053229;28;20404;-71
2020/12/26 12:25:31;;;;;;;0.80;0.45;;;20.20;39.10;;;;;;5020607;28;20024;-71
2020/12/26 12:27:57;;;;;;;0.20;0.20;;;20.10;39.20;;;;;;5037107;28;20040;-71
2020/12/26 12:30:23;;;;;;;0.85;0.30;;;20.10;39.20;;;;;;5037539;28;20025;-71
2020/12/26 12:32:48;;;;;;;0.40;0.40;;;20.10;40.00;;;;;;5034677;28;20080;-72
2020/12/26 12:35:14;;;;;;;0.50;0.35;;;20.10;39.40;;;;;;5003099;28;20091;-72
2020/12/26 12:37:40;;;;;;;0.40;0.38;;;20.00;39.30;;;;;;5037217;28;20033;-71
2020/12/26 12:40:06;;;;;;;1.00;0.43;;;20.00;39.50;;;;;;5054333;28;20056;-71
2020/12/26 12:42:31;;;;;;;0.15;0.15;;;20.00;39.50;;;;;;5004417;28;20041;-72
2020/12/26 12:44:57;;;;;;;1.45;0.45;;;20.00;39.70;;;;;;5053594;28;20049;-69
2020/12/26 12:47:23;;;;;;;0.98;0.30;;;20.00;39.80;;;;;;5054176;28;20025;-69
2020/12/26 12:49:49;;;;;;;1.27;0.30;;;20.00;39.90;;;;;;5018673;28;20385;-71
2020/12/26 12:52:15;;;;;;;0.80;0.40;;;20.00;39.80;;;;;;5016764;28;20052;-72
2020/12/26 12:54:41;;;;;;;0.80;0.40;;;20.00;39.90;;;;;;5054242;28;20558;-71
2020/12/26 12:57:06;;;;;;;3.80;0.30;;;20.00;39.80;;;;;;5036700;28;20029;-71
2020/12/26 12:59:32;;;;;;;3.53;0.38;;;20.00;39.90;;;;;;5045213;28;20021;-72